Aeroporto :







RITROVATECI SU...

 
LOGIN :

Iscrizione | Disclaimer

   EN    FR    IT 

 









Sommario :    VFR   VFR Marginale   IFR   IFR Intensivo   IFR Molto Intensivo
Visibilità : 
Base nubi : 
>= 8 km
>= 3000ft
5 / 8 km
1000 / 3000 ft
1500m / 5 km
500 / 1000 ft
800 / 1500m
200 / 500 ft
< 800m
< 200 ft
Simboli :   Temporali  Nebbia  Neve Forte  Precipitazioni Forti  Vento > 20 kt






- Altitudine del aeroporto : 59 ft
- Codice IATA : SDQ


MDSD - Las Americas Int.

ULTIMO METAR :
  • 180900Z 36008KT 9999 FEW016CB FEW016 25/24 Q1011 CB/NE/E/N

METARs OBSOLETI :
  • 180800Z 36010KT 9999 FEW016CB FEW016 25/24 Q1011 CB/NE/E/N
  • 180700Z 35010KT 9999 FEW016CB FEW016 25/24 Q1011 CB/NE/N

TAF TAF MDSD
Valido dal 18 a 06 ore il 19 a 06 ore UTC


180400Z 1806/1906 02004KT 9999 SCT018
PROB30 1806/1812 8000-TSSH FEW016CB BKN017
FIR MDCS / America del Nord



MetMap, La meteo Aeronautica in un colpo d'occhio ! - Copyright ORBIFLY Dicembre 2007 - Disclaimer

ORBIFLY MET'MAP TEAM :

Programmazione e sviluppo : Alexandra Zaïnal
Concezione : Baudouin d'Aumeries
Aiuto per la programmazione : Marc-Olivier Méhu
Supporto tecnico e logistico : Manuel Goepfert
Aiuto per la traduzione : Arnaldo La Scala

Contatto : metmap@orbifly.com




FONTI E CREDITI :

   NOAA